Time;durP1;ratioP1;P1;durP2;ratioP2;P2;SDS_P1;SDS_P2;PMS_P1;PMS_P2;Temp;Humidity;BMP_temperature;BMP_pressure;BME280_temperature;BME280_humidity;BME280_pressure;Samples;Min_cycle;Max_cycle;Signal;HPM_P1;HPM_P2
2022/04/28 00:00:34;;;;;;;4.60;3.25;;;;;;;13.09;100.00;63350.78;5106138;28;20196;-78
2022/04/28 00:03:03;;;;;;;6.45;3.85;;;;;;;13.10;100.00;63346.19;5106464;28;20216;-78
2022/04/28 00:05:30;;;;;;;11.38;4.00;;;;;;;13.18;100.00;63355.00;5101953;28;20224;-78
2022/04/28 00:07:57;;;;;;;6.38;3.20;;;;;;;13.11;100.00;63354.88;5103483;28;20572;-78
2022/04/28 00:10:24;;;;;;;3.58;3.28;;;;;;;13.11;100.00;63354.88;5106124;28;20196;-77
2022/04/28 00:12:51;;;;;;;3.67;3.47;;;;;;;13.22;100.00;63366.81;5106638;28;20220;-78
2022/04/28 00:15:18;;;;;;;6.22;3.45;;;;;;;13.34;100.00;63374.13;5101571;28;20222;-77
2022/04/28 00:17:45;;;;;;;4.03;3.10;;;;;;;13.36;100.00;63381.34;5106347;28;20228;-77
2022/04/28 00:20:14;;;;;;;4.25;3.10;;;;;;;13.43;100.00;63386.03;5104562;28;20432;-78
2022/04/28 00:22:41;;;;;;;5.65;3.65;;;;;;;13.50;99.63;63395.34;5103653;28;20269;-77
2022/04/28 00:25:09;;;;;;;4.07;3.10;;;;;;;13.53;99.50;63396.41;5100487;28;20223;-78
2022/04/28 00:27:36;;;;;;;4.72;3.03;;;;;;;13.48;97.71;63388.66;5104805;28;20452;-78
2022/04/28 00:30:03;;;;;;;6.40;3.25;;;;;;;13.54;97.20;63394.38;5104665;28;20249;-78
2022/04/28 00:32:30;;;;;;;3.35;3.15;;;;;;;13.58;96.41;63399.03;5103251;28;20284;-78
2022/04/28 00:34:57;;;;;;;5.32;2.92;;;;;;;13.44;97.35;63392.19;5113327;28;20203;-78
2022/04/28 00:37:25;;;;;;;3.65;2.88;;;;;;;13.44;97.39;63389.63;5109191;28;20390;-78
2022/04/28 00:39:52;;;;;;;3.45;3.25;;;;;;;13.34;98.12;63374.13;5099038;28;20409;-78
2022/04/28 00:42:20;;;;;;;3.35;3.10;;;;;;;13.35;97.93;63380.31;5104246;28;20231;-79
2022/04/28 00:44:47;;;;;;;3.00;2.70;;;;;;;13.25;99.03;63361.72;5105855;28;20192;-78
2022/04/28 00:47:15;;;;;;;5.80;3.45;;;;;;;13.28;99.19;63369.97;5106047;28;20216;-78
2022/04/28 00:52:29;;;;;;;6.43;3.50;;;;;;;13.22;100.00;63363.75;5109394;28;20455;-78
2022/04/28 00:54:57;;;;;;;4.60;3.90;;;;;;;13.23;100.00;63365.28;5105089;28;20197;-78
2022/04/28 00:57:25;;;;;;;5.13;3.35;;;;;;;13.27;100.00;63368.94;5097232;28;20278;-78
2022/04/28 00:59:52;;;;;;;7.15;4.30;;;;;;;13.23;100.00;63360.19;5106404;28;20233;-78
2022/04/28 01:02:20;;;;;;;4.20;3.90;;;;;;;13.20;100.00;63364.22;5106977;28;20219;-77
2022/04/28 01:04:47;;;;;;;4.80;3.85;;;;;;;13.20;100.00;63362.16;5106674;28;20196;-78
2022/04/28 01:07:14;;;;;;;7.10;4.10;;;;;;;13.24;100.00;63363.75;5106934;28;20220;-78
2022/04/28 01:09:43;;;;;;;8.25;4.03;;;;;;;13.23;100.00;63365.28;5105491;28;20250;-78
2022/04/28 01:12:15;;;;;;;6.57;4.32;;;;;;;13.21;100.00;63363.22;5105368;28;20215;-78
2022/04/28 01:14:42;;;;;;;4.38;4.03;;;;;;;13.21;100.00;63363.22;5085771;28;20254;-78
2022/04/28 01:17:09;;;;;;;4.78;4.38;;;;;;;13.25;100.00;63367.38;5098555;28;20243;-78
2022/04/28 01:19:36;;;;;;;9.23;4.45;;;;;;;13.19;100.00;63356.03;5104984;28;20208;-78
2022/04/28 01:22:05;;;;;;;5.75;4.43;;;;;;;13.19;100.00;63360.63;5103107;28;20235;-78
2022/04/28 01:24:32;;;;;;;5.25;4.72;;;;;;;13.21;100.00;63360.13;5104840;28;20207;-79
2022/04/28 01:27:01;;;;;;;4.38;3.95;;;;;;;13.25;100.00;63367.38;5104292;28;20402;-78
2022/04/28 01:29:28;;;;;;;4.63;4.22;;;;;;;13.18;100.00;63360.09;5104776;28;20283;-78
2022/04/28 01:31:55;;;;;;;4.13;3.75;;;;;;;13.24;100.00;63366.31;5101139;28;20469;-78
2022/04/28 01:34:21;;;;;;;5.20;4.07;;;;;;;13.28;100.00;63367.94;5104170;28;20196;-78
2022/04/28 01:36:48;;;;;;;4.63;4.22;;;;;;;13.34;100.00;63376.19;5105042;28;20220;-78
2022/04/28 01:39:16;;;;;;;6.90;4.32;;;;;;;13.31;100.00;63375.63;5108517;28;20196;-78
2022/04/28 01:41:43;;;;;;;4.18;3.80;;;;;;;13.35;100.00;63377.22;5106155;28;20196;-77
2022/04/28 01:44:11;;;;;;;5.03;4.53;;;;;;;13.28;100.00;63367.94;5108426;28;20243;-78
2022/04/28 01:46:38;;;;;;;5.47;4.35;;;;;;;13.33;100.00;63372.59;5108195;28;20196;-78
2022/04/28 01:49:05;;;;;;;7.38;4.05;;;;;;;13.23;100.00;63365.28;5106096;28;20235;-79
2022/04/28 01:57:02;;;;;;;6.82;4.22;;;;;;;13.35;100.00;63375.19;5092553;28;20190;-77
2022/04/28 01:59:29;;;;;;;5.57;4.50;;;;;;;13.35;100.00;63377.22;5102908;28;20199;-78
2022/04/28 02:01:56;;;;;;;7.03;4.65;;;;;;;13.25;100.00;63364.81;5107323;28;20252;-78
2022/04/28 02:04:22;;;;;;;5.30;4.78;;;;;;;13.24;100.00;63363.25;5107473;28;20222;-78
2022/04/28 02:06:49;;;;;;;4.80;4.20;;;;;;;13.26;100.00;63365.31;5107280;28;20422;-79
2022/04/28 02:09:17;;;;;;;8.93;4.63;;;;;;;13.26;100.00;63365.31;5103768;28;20243;-77
2022/04/28 02:11:44;;;;;;;6.47;4.63;;;;;;;13.25;100.00;63362.25;5105955;28;20196;-77
2022/04/28 02:14:11;;;;;;;5.43;4.97;;;;;;;13.27;100.00;63371.47;5106592;28;20230;-77
2022/04/28 02:16:37;;;;;;;4.93;4.38;;;;;;;13.31;100.00;63376.16;5103037;28;20203;-78
2022/04/28 02:19:04;;;;;;;9.38;4.82;;;;;;;13.37;100.00;63376.75;5104410;28;20448;-77
2022/04/28 02:21:31;;;;;;;4.85;4.55;;;;;;;13.38;100.00;63380.84;5099872;28;20207;-77
2022/04/28 02:23:58;;;;;;;5.07;4.78;;;;;;;13.26;100.00;63370.44;5106596;28;20265;-77
2022/04/28 02:26:26;;;;;;;9.70;4.78;;;;;;;13.29;100.00;63371.50;5101244;28;20196;-77
2022/04/28 02:28:53;;;;;;;5.88;5.22;;;;;;;13.21;100.00;63365.25;5106511;28;20228;-78
2022/04/28 02:31:20;;;;;;;9.38;5.25;;;;;;;13.29;100.00;63371.50;5107136;28;20200;-77
2022/04/28 02:33:47;;;;;;;5.32;4.70;;;;;;;13.27;100.00;63368.94;5106088;28;20219;-77
2022/04/28 02:36:14;;;;;;;7.32;5.78;;;;;;;13.15;100.00;63351.88;5101865;28;20203;-76
2022/04/28 02:38:40;;;;;;;5.80;4.85;;;;;;;13.09;100.00;63352.81;5106294;28;20392;-77
2022/04/28 02:41:07;;;;;;;6.30;5.05;;;;;;;13.00;100.00;63333.22;5106933;28;20196;-77
2022/04/28 02:43:36;;;;;;;6.80;5.00;;;;;;;12.91;100.00;63331.56;5104731;28;20220;-77
2022/04/28 02:46:03;;;;;;;6.22;5.00;;;;;;;12.92;100.00;63322.38;5103251;28;20200;-77
2022/04/28 02:48:30;;;;;;;5.68;5.07;;;;;;;12.90;100.00;63328.47;5106635;28;20586;-78
2022/04/28 02:50:56;;;;;;;4.93;4.53;;;;;;;12.94;100.00;63334.66;5104311;28;20228;-77
2022/04/28 02:53:23;;;;;;;5.13;4.80;;;;;;;12.89;100.00;63329.50;5101727;28;20229;-78
2022/04/28 02:55:50;;;;;;;6.18;4.88;;;;;;;12.80;100.00;63323.72;5105535;28;20233;-77
2022/04/28 02:58:17;;;;;;;7.85;5.57;;;;;;;12.81;100.00;63321.69;5106985;28;20215;-77
2022/04/28 03:00:45;;;;;;;6.72;4.80;;;;;;;12.88;100.00;63326.41;5106736;28;20196;-78
2022/04/28 03:03:12;;;;;;;5.80;4.60;;;;;;;12.91;100.00;63329.00;5100844;28;20265;-77
2022/04/28 03:11:04;;;;;;;5.10;4.57;;;;;;;12.94;100.00;63334.66;5104312;28;20298;-78
2022/04/28 03:13:32;;;;;;;5.97;4.45;;;;;;;12.91;100.00;63332.06;5104128;28;20265;-78
2022/04/28 03:16:01;;;;;;;4.93;4.53;;;;;;;12.97;100.00;63335.75;5107036;28;20500;-78
2022/04/28 03:18:28;;;;;;;7.78;4.72;;;;;;;13.05;100.00;63341.50;5107774;28;20234;-78
2022/04/28 03:20:55;;;;;;;7.65;5.57;;;;;;;13.04;100.00;63337.38;5100845;28;20234;-78
2022/04/28 03:23:23;;;;;;;4.88;4.47;;;;;;;13.07;100.00;63346.13;5107100;28;20216;-78
2022/04/28 03:25:51;;;;;;;10.93;5.10;;;;;;;13.10;100.00;63353.84;5105560;28;20204;-79
2022/04/28 03:28:18;;;;;;;5.03;4.53;;;;;;;13.14;100.00;63352.88;5112356;28;20224;-79
2022/04/28 03:30:46;;;;;;;6.10;4.50;;;;;;;13.14;100.00;63350.84;5111808;28;20224;-79
2022/04/28 03:33:14;;;;;;;6.25;4.95;;;;;;;13.18;100.00;63357.56;5109027;28;20218;-78
2022/04/28 03:35:41;;;;;;;5.60;5.05;;;;;;;13.17;100.00;63348.31;5099838;28;20219;-77
2022/04/28 03:38:13;;;;;;;5.43;4.35;;;;;;;13.19;100.00;63360.63;5102694;28;20216;-78
2022/04/28 03:40:40;;;;;;;5.00;4.50;;;;;;;13.24;100.00;63363.25;5111257;28;20184;-78
2022/04/28 03:43:07;;;;;;;5.60;5.20;;;;;;;13.26;100.00;63365.84;5110010;28;20242;-78
2022/04/28 03:45:34;;;;;;;7.28;5.00;;;;;;;13.20;100.00;63357.06;5108041;28;20200;-78
2022/04/28 03:48:02;;;;;;;4.97;4.57;;;;;;;13.19;100.00;63361.13;5106051;28;20277;-78
2022/04/28 03:50:31;;;;;;;5.47;4.57;;;;;;;13.09;100.00;63345.13;5105876;28;20518;-77
2022/04/28 03:52:58;;;;;;;4.95;4.38;;;;;;;13.15;100.00;63351.88;5105748;28;20226;-78
2022/04/28 03:55:25;;;;;;;5.93;5.00;;;;;;;13.07;100.00;63346.13;5102675;28;20249;-78
2022/04/28 03:57:52;;;;;;;5.10;4.80;;;;;;;12.79;100.00;63320.16;5102531;28;20269;-78
2022/04/28 04:00:20;;;;;;;6.93;5.15;;;;;;;12.76;100.00;63319.06;5113276;28;20198;-78
2022/04/28 04:02:46;;;;;;;5.07;4.63;;;;;;;12.92;100.00;63333.13;5110459;28;20211;-78
2022/04/28 04:05:13;;;;;;;5.68;5.13;;;;;;;13.07;100.00;63343.06;5109137;28;20196;-78
2022/04/28 04:07:43;;;;;;;6.28;5.50;;;;;;;13.13;100.00;63351.84;5110296;28;20440;-77
2022/04/28 04:10:11;;;;;;;7.50;5.47;;;;;;;13.15;100.00;63356.47;5108448;28;20228;-77
2022/04/28 04:12:38;;;;;;;6.85;5.75;;;;;;;13.12;100.00;63353.34;5109829;28;20499;-78
2022/04/28 04:15:06;;;;;;;6.63;6.13;;;;;;;13.11;100.00;63350.28;5102761;28;20212;-77
2022/04/28 04:17:40;;;;;;;6.80;6.13;;;;;;;13.03;100.00;63338.91;5105607;28;20524;-78
2022/04/28 04:20:08;;;;;;;7.20;6.28;;;;;;;13.17;100.00;63356.50;5106093;28;20196;-77
2022/04/28 04:22:36;;;;;;;6.43;5.93;;;;;;;12.92;100.00;63330.03;5105088;28;20245;-77
2022/04/28 04:25:05;;;;;;;8.32;6.53;;;;;;;13.07;100.00;63348.69;5087567;28;20208;-77
2022/04/28 04:27:32;;;;;;;7.07;6.47;;;;;;;12.97;100.00;63343.41;5098756;28;20212;-78
2022/04/28 04:29:59;;;;;;;7.50;6.80;;;;;;;13.16;100.00;63358.03;5105049;28;20216;-77
2022/04/28 04:32:25;;;;;;;10.10;7.40;;;;;;;12.92;100.00;63333.13;5095302;28;20220;-77
2022/04/28 04:34:54;;;;;;;8.20;7.40;;;;;;;12.69;100.00;63307.22;5099757;28;20219;-77
2022/04/28 04:37:21;;;;;;;8.70;7.53;;;;;;;12.77;100.00;63318.06;5104732;28;20263;-77
2022/04/28 04:39:48;;;;;;;8.50;7.68;;;;;;;12.93;100.00;63336.19;5104550;28;20199;-77
2022/04/28 04:42:17;;;;;;;8.98;7.40;;;;;;;12.86;100.00;63321.78;5103132;28;20287;-77
2022/04/28 04:44:44;;;;;;;9.95;7.65;;;;;;;12.87;100.00;63324.84;5103809;28;20396;-77
2022/04/28 04:47:11;;;;;;;9.27;7.38;;;;;;;12.53;100.00;63295.75;5103195;28;20216;-76
2022/04/28 04:49:38;;;;;;;8.80;8.10;;;;;;;12.58;100.00;63295.81;5094018;28;20228;-77
2022/04/28 04:52:05;;;;;;;8.20;7.50;;;;;;;12.64;100.00;63304.59;5092111;28;20218;-77
2022/04/28 04:54:31;;;;;;;9.05;7.45;;;;;;;12.65;100.00;63305.63;5102718;28;20191;-77
2022/04/28 04:56:58;;;;;;;7.93;7.22;;;;;;;12.63;100.00;63297.94;5096672;28;20188;-78
2022/04/28 04:59:27;;;;;;;7.53;6.93;;;;;;;12.59;100.00;63296.34;5098919;28;20323;-77
2022/04/28 05:01:53;;;;;;;7.40;6.35;;;;;;;12.58;100.00;63295.31;5105364;28;20249;-78
2022/04/28 05:04:20;;;;;;;7.68;7.05;;;;;;;12.58;100.00;63297.88;5104748;28;20229;-76
2022/04/28 05:06:48;;;;;;;6.35;5.75;;;;;;;12.43;100.00;63280.25;5104708;28;20226;-76
2022/04/28 05:09:16;;;;;;;5.68;5.25;;;;;;;12.44;100.00;63280.78;5098908;28;20211;-77
2022/04/28 05:11:43;;;;;;;4.72;4.43;;;;;;;12.45;100.00;63281.81;5104858;28;20501;-78
2022/04/28 05:14:10;;;;;;;3.83;3.60;;;;;;;12.28;100.00;63272.38;5104701;28;20269;-77
2022/04/28 05:16:39;;;;;;;5.78;3.85;;;;;;;12.28;100.00;63269.31;5106902;28;20200;-78
2022/04/28 05:19:06;;;;;;;4.30;3.80;;;;;;;11.97;100.00;63234.63;5109708;28;20223;-76
2022/04/28 05:21:33;;;;;;;4.07;3.78;;;;;;;11.97;100.00;63235.16;5108238;28;20200;-77
2022/04/28 05:23:59;;;;;;;8.80;3.35;;;;;;;11.97;100.00;63232.59;5107635;28;20223;-77
2022/04/28 05:26:26;;;;;;;3.70;3.47;;;;;;;12.13;100.00;63251.72;5103675;28;20443;-78
2022/04/28 05:28:54;;;;;;;2.50;2.38;;;;;;;12.17;100.00;63260.97;5107438;28;20216;-78
2022/04/28 05:31:21;;;;;;;2.60;2.40;;;;;;;12.16;100.00;63251.75;5107381;28;20228;-77
2022/04/28 05:33:49;;;;;;;4.32;2.85;;;;;;;12.16;100.00;63252.28;5107733;28;20212;-77
2022/04/28 05:36:17;;;;;;;2.25;2.15;;;;;;;12.11;100.00;63251.69;5104048;28;20245;-77
2022/04/28 05:38:44;;;;;;;4.65;2.33;;;;;;;11.93;100.00;63227.91;5107539;28;20219;-77
2022/04/28 05:41:11;;;;;;;2.15;2.05;;;;;;;11.99;100.00;63237.22;5106990;28;20195;-77
2022/04/28 05:46:34;;;;;;;2.15;1.70;;;;;;;11.98;100.00;63238.19;5046231;28;20198;-77
2022/04/28 05:49:02;;;;;;;1.48;1.48;;;;;;;11.85;100.00;63222.19;5090522;28;20455;-77
2022/04/28 05:51:29;;;;;;;2.60;1.40;;;;;;;11.84;100.00;63221.16;5107440;28;20543;-77
2022/04/28 05:53:57;;;;;;;1.75;1.65;;;;;;;11.69;100.00;63203.56;5103113;28;20280;-76
2022/04/28 05:56:23;;;;;;;2.45;2.25;;;;;;;11.69;100.00;63203.56;5090942;28;20200;-76
2022/04/28 05:58:50;;;;;;;2.20;2.10;;;;;;;11.65;100.00;63201.97;5095070;28;20479;-78
2022/04/28 06:01:17;;;;;;;3.08;2.17;;;;;;;11.59;100.00;63193.72;5106822;28;20193;-76
2022/04/28 06:03:44;;;;;;;1.85;1.65;;;;;;;11.43;100.00;63179.69;5105316;28;20451;-77
2022/04/28 06:06:12;;;;;;;2.17;1.58;;;;;;;11.34;100.00;63167.81;5104511;28;20192;-77
2022/04/28 06:08:39;;;;;;;1.92;1.80;;;;;;;11.37;100.00;63170.91;5106026;28;20235;-77
2022/04/28 06:11:06;;;;;;;1.92;1.83;;;;;;;11.36;100.00;63169.88;5108390;28;20231;-76
2022/04/28 06:13:33;;;;;;;3.80;1.40;;;;;;;11.32;100.00;63165.22;5104512;28;20287;-77
2022/04/28 06:16:01;;;;;;;2.20;1.58;;;;;;;11.44;100.00;63175.13;5107624;28;20439;-77
2022/04/28 06:18:28;;;;;;;1.05;1.02;;;;;;;11.38;100.00;63176.53;5107354;28;20249;-77
2022/04/28 06:20:55;;;;;;;1.70;1.60;;;;;;;11.28;100.00;63158.53;5102874;28;20208;-76
2022/04/28 06:23:23;;;;;;;3.10;1.83;;;;;;;11.06;100.00;63138.81;5106174;28;20223;-76
2022/04/28 06:25:50;;;;;;;1.45;1.35;;;;;;;11.11;100.00;63143.97;5105487;28;20199;-76
2022/04/28 06:28:17;;;;;;;4.13;1.50;;;;;;;11.24;100.00;63159.47;5104261;28;20215;-77
2022/04/28 06:30:44;;;;;;;1.27;1.27;;;;;;;11.02;100.00;63129.59;5104450;28;20255;-77
2022/04/28 06:33:11;;;;;;;1.20;1.20;;;;;;;11.14;100.00;63144.03;5107611;28;20298;-76
2022/04/28 06:35:38;;;;;;;1.45;1.40;;;;;;;11.20;100.00;63155.84;5106667;28;20211;-76
2022/04/28 06:38:05;;;;;;;1.20;1.13;;;;;;;11.24;100.00;63156.94;5105584;28;20262;-77
2022/04/28 06:40:34;;;;;;;0.88;0.88;;;;;;;11.23;100.00;63158.47;5113945;28;20273;-77
2022/04/28 06:43:01;;;;;;;1.00;1.00;;;;;;;11.17;100.00;63149.69;5114462;28;20215;-78
2022/04/28 06:45:27;;;;;;;1.70;1.00;;;;;;;11.26;100.00;63159.53;5108761;28;20204;-78
2022/04/28 06:47:54;;;;;;;0.85;0.85;;;;;;;11.17;100.00;63149.69;5101274;28;20234;-77
2022/04/28 06:50:21;;;;;;;1.08;1.08;;;;;;;11.36;100.00;63167.34;5108687;28;20257;-77
2022/04/28 06:52:48;;;;;;;1.98;1.05;;;;;;;11.41;100.00;63177.09;5108031;28;20224;-78
2022/04/28 06:55:15;;;;;;;0.70;0.70;;;;;;;11.41;100.00;63177.09;5108910;28;20222;-78
2022/04/28 06:57:43;;;;;;;0.85;0.80;;;;;;;11.19;100.00;63149.22;5104952;28;20269;-77
2022/04/28 07:00:11;;;;;;;1.02;1.02;;;;;;;11.31;100.00;63164.72;5108666;28;20192;-77
2022/04/28 07:02:38;;;;;;;1.95;1.20;;;;;;;11.25;100.00;63163.09;5109043;28;20242;-77
2022/04/28 07:05:05;;;;;;;0.70;0.70;;;;;;;11.29;100.00;63162.13;5105518;28;20207;-78
2022/04/28 07:07:32;;;;;;;1.08;0.82;;;;;;;11.40;100.00;63176.59;5104914;28;20262;-77
2022/04/28 07:09:59;;;;;;;1.73;1.00;;;;;;;11.36;100.00;63172.44;5107028;28;20192;-77
2022/04/28 07:12:26;;;;;;;0.70;0.70;;;;;;;11.26;100.00;63161.56;5104368;28;20220;-78
2022/04/28 07:14:54;;;;;;;0.63;0.63;;;;;;;11.26;100.00;63161.56;5104272;28;20224;-77
2022/04/28 07:17:21;;;;;;;0.57;0.57;;;;;;;11.24;100.00;63160.00;5106127;28;20215;-78
2022/04/28 07:19:48;;;;;;;0.70;0.70;;;;;;;11.40;100.00;63171.50;5102310;28;20196;-78
2022/04/28 07:22:14;;;;;;;0.80;0.80;;;;;;;11.59;100.00;63196.28;5103700;28;20261;-77
2022/04/28 07:24:41;;;;;;;1.00;0.73;;;;;;;11.56;100.00;63195.69;5105368;28;20215;-78
2022/04/28 07:27:08;;;;;;;0.50;0.50;;;;;;;11.48;100.00;63184.88;5103813;28;20257;-79
2022/04/28 07:29:35;;;;;;;0.60;0.60;;;;;;;11.28;100.00;63156.50;5103351;28;20260;-77
2022/04/28 07:32:04;;;;;;;0.60;0.60;;;;;;;11.39;100.00;63175.00;5104126;28;20232;-77
2022/04/28 07:34:32;;;;;;;0.50;0.50;;;;;;;11.51;100.00;63185.41;5099646;28;20241;-76
2022/04/28 07:36:59;;;;;;;0.75;0.60;;;;;;;11.58;100.00;63192.66;5104670;28;20193;-78
2022/04/28 07:39:26;;;;;;;0.85;0.55;;;;;;;11.43;100.00;63176.63;5100829;28;20263;-77
2022/04/28 07:41:53;;;;;;;3.92;0.80;;;;;;;11.55;100.00;63192.13;5101580;28;20481;-77
2022/04/28 07:44:19;;;;;;;1.45;0.57;;;;;;;11.68;100.00;63202.03;5104761;28;20196;-77
2022/04/28 07:46:46;;;;;;;4.10;0.73;;;;;;;11.86;100.00;63223.22;5104292;28;20196;-76
2022/04/28 07:49:14;;;;;;;1.23;1.13;;;;;;;11.96;100.00;63229.00;5102488;28;20207;-76
2022/04/28 07:51:42;;;;;;;0.70;0.70;;;;;;;11.92;100.00;63226.88;5104146;28;20253;-74
2022/04/28 07:54:08;;;;;;;2.35;0.80;;;;;;;12.03;100.00;63238.28;5103735;28;20234;-76
2022/04/28 07:56:35;;;;;;;0.70;0.70;;;;;;;12.00;100.00;63235.69;5101912;28;20431;-76
2022/04/28 07:59:03;;;;;;;0.82;0.82;;;;;;;11.86;100.00;63223.72;5101926;28;20222;-75
2022/04/28 08:01:31;;;;;;;1.48;0.68;;;;;;;11.99;100.00;63237.22;5103906;28;20276;-76
2022/04/28 08:03:58;;;;;;;0.90;0.88;;;;;;;12.01;100.00;63234.16;5103435;28;20212;-74
2022/04/28 08:06:26;;;;;;;3.33;0.98;;;;;;;11.88;100.00;63222.72;5100136;28;20200;-76
2022/04/28 08:08:53;;;;;;;1.27;1.00;;;;;;;12.04;100.00;63239.84;5102431;28;20231;-76
2022/04/28 08:11:20;;;;;;;0.80;0.80;;;;;;;12.10;100.00;63246.06;5100672;28;20269;-74
2022/04/28 08:13:46;;;;;;;2.63;0.88;;;;;;;11.98;100.00;63243.81;5102675;28;20214;-76
2022/04/28 08:16:13;;;;;;;1.08;1.08;;;;;;;12.02;100.00;63240.31;5099218;28;20392;-75
2022/04/28 08:18:40;;;;;;;0.70;0.70;;;;;;;11.91;100.00;63225.84;5103214;28;20341;-75
2022/04/28 08:21:08;;;;;;;0.98;0.98;;;;;;;11.90;100.00;63222.78;5103063;28;20196;-76
2022/04/28 08:23:37;;;;;;;1.63;1.15;;;;;;;11.98;100.00;63236.16;5104020;28;20388;-75
2022/04/28 08:26:04;;;;;;;1.27;1.27;;;;;;;12.12;100.00;63248.13;5100494;28;20212;-76
2022/04/28 08:28:30;;;;;;;1.00;1.00;;;;;;;11.61;100.00;63192.72;5099963;28;20461;-75
2022/04/28 08:30:57;;;;;;;1.13;1.02;;;;;;;11.65;100.00;63196.88;5093347;28;20257;-76
2022/04/28 08:33:24;;;;;;;2.13;1.00;;;;;;;11.77;100.00;63209.31;5101553;28;20253;-75
2022/04/28 08:35:51;;;;;;;0.90;0.90;;;;;;;11.99;100.00;63234.66;5095614;28;20196;-76
2022/04/28 08:38:18;;;;;;;1.40;1.30;;;;;;;11.91;100.00;63226.38;5098062;28;20216;-76
2022/04/28 08:40:48;;;;;;;0.98;0.98;;;;;;;11.97;100.00;63232.59;5096069;28;20196;-75
2022/04/28 08:43:17;;;;;;;2.58;1.00;;;;;;;12.02;100.00;63235.22;5096721;28;20261;-75
2022/04/28 08:48:37;;;;;;;1.55;1.48;;;;;;;12.08;100.00;63241.44;5061664;28;20265;-76
2022/04/28 08:51:05;;;;;;;1.10;1.10;;;;;;;12.13;100.00;63249.16;5097329;28;20259;-76
2022/04/28 08:53:31;;;;;;;1.23;1.23;;;;;;;12.05;100.00;63245.97;5099044;28;20227;-76
2022/04/28 08:56:00;;;;;;;3.78;1.40;;;;;;;12.08;100.00;63243.47;5098414;28;20291;-76
2022/04/28 08:58:26;;;;;;;1.40;1.23;;;;;;;12.18;100.00;63253.84;5099235;28;20249;-76
2022/04/28 09:00:53;;;;;;;1.15;1.15;;;;;;;12.24;100.00;63260.03;5096815;28;20196;-75
2022/04/28 09:03:21;;;;;;;1.10;1.08;;;;;;;12.26;100.00;63262.13;5097033;28;20227;-76
2022/04/28 09:05:49;;;;;;;4.15;1.35;;;;;;;12.20;100.00;63253.88;5096819;28;20298;-75
2022/04/28 09:08:17;;;;;;;1.38;1.25;;;;;;;12.04;100.00;63236.78;5101665;28;20278;-76
2022/04/28 09:10:45;;;;;;;2.00;1.90;;;;;;;12.00;100.00;63237.72;5101974;28;20196;-75
2022/04/28 09:15:57;;;;;;;2.40;1.40;;;;;;;11.88;100.00;63230.91;5101355;28;20381;-74
2022/04/28 09:18:25;;;;;;;1.85;1.70;;;;;;;12.08;100.00;63241.44;5095551;28;20262;-76
2022/04/28 09:20:52;;;;;;;2.70;1.52;;;;;;;12.07;100.00;63242.94;5102194;28;20195;-76
2022/04/28 09:23:19;;;;;;;1.63;1.63;;;;;;;11.47;100.00;63183.31;5099903;28;20216;-77
2022/04/28 09:25:46;;;;;;;2.00;1.90;;;;;;;11.73;100.00;63202.63;5098690;28;20216;-76
2022/04/28 09:28:15;;;;;;;1.20;1.20;;;;;;;11.98;100.00;63228.50;5101796;28;20219;-74
2022/04/28 09:30:43;;;;;;;3.03;1.48;;;;;;;11.83;100.00;63215.53;5099968;28;20196;-76
2022/04/28 09:33:12;;;;;;;1.70;1.60;;;;;;;12.08;100.00;63241.44;5098712;28;20246;-75
2022/04/28 09:35:50;;;;;;;1.63;1.58;;;;;;;12.42;100.00;63276.16;5097726;28;20196;-76
2022/04/28 09:38:17;;;;;;;1.67;1.58;;;;;;;12.51;100.00;63288.06;5104545;28;20228;-77
2022/04/28 09:43:35;;;;;;;2.05;1.33;;;;;;;12.70;100.00;63310.81;5107555;28;20218;-77
2022/04/28 09:46:04;;;;;;;1.55;1.55;;;;;;;12.92;100.00;63330.03;5103281;28;20200;-77
2022/04/28 09:48:32;;;;;;;1.73;1.60;;;;;;;13.15;100.00;63356.47;5100645;28;20268;-76
2022/04/28 09:51:04;;;;;;;2.45;1.80;;;;;;;12.95;100.00;63333.66;5101805;28;20203;-76
2022/04/28 09:53:34;;;;;;;2.03;1.92;;;;;;;13.18;100.00;63352.44;5098498;28;20216;-75
2022/04/28 09:56:02;;;;;;;1.92;1.83;;;;;;;13.33;100.00;63370.03;5098526;28;20195;-77
2022/04/28 09:58:30;;;;;;;5.85;2.00;;;;;;;13.40;100.00;63379.84;5102651;28;20212;-75
2022/04/28 10:01:02;;;;;;;3.08;2.28;;;;;;;13.61;100.00;63406.75;5104145;28;20381;-75
2022/04/28 10:03:33;;;;;;;3.17;1.80;;;;;;;13.68;100.00;63409.41;5106720;28;20215;-76
2022/04/28 10:06:02;;;;;;;2.63;2.05;;;;;;;13.52;100.00;63392.31;5106990;28;20234;-76
2022/04/28 10:08:30;;;;;;;2.53;2.22;;;;;;;13.56;100.00;63399.53;5102779;28;20219;-77
2022/04/28 10:10:59;;;;;;;2.22;2.13;;;;;;;13.66;100.00;63406.84;5102017;28;20395;-77
2022/04/28 10:13:29;;;;;;;3.47;2.45;;;;;;;13.59;100.00;63405.22;5099266;28;20441;-76
2022/04/28 10:16:00;;;;;;;3.63;2.33;;;;;;;13.72;99.50;63410.50;5101704;28;20233;-76
2022/04/28 10:18:34;;;;;;;2.40;2.03;;;;;;;14.03;97.94;63445.22;5101701;28;20321;-77
2022/04/28 10:21:04;;;;;;;6.85;3.22;;;;;;;14.06;95.73;63442.72;5106515;28;20398;-77
2022/04/28 10:35:03;;;;;;;3.30;2.40;;;;;;;13.97;95.52;63438.47;5092530;28;20218;-76
2022/04/28 10:37:34;;;;;;;2.58;2.38;;;;;;;14.20;94.47;63468.03;5086054;28;20212;-77
2022/04/28 10:40:01;;;;;;;4.18;2.47;;;;;;;14.34;92.61;63480.00;5103428;28;20223;-77
2022/04/28 10:42:57;;;;;;;4.85;2.53;;;;;;;14.56;91.21;63499.78;5095411;28;20243;-76
2022/04/28 10:45:28;;;;;;;4.25;2.50;;;;;;;14.45;91.38;63486.31;5102000;28;20228;-76
2022/04/28 10:51:10;;;;;;;6.88;2.67;;;;;;;14.49;90.66;63489.94;5085794;28;20192;-77
2022/04/28 10:53:57;;;;;;;6.88;3.08;;;;;;;14.71;88.74;63512.78;5104691;28;20228;-76
2022/04/28 10:56:24;;;;;;;6.53;3.47;;;;;;;14.60;89.82;63501.38;5106397;28;20195;-76
2022/04/28 10:58:52;;;;;;;5.43;2.63;;;;;;;14.63;88.04;63512.16;5106133;28;20223;-76
2022/04/28 11:01:26;;;;;;;2.50;2.30;;;;;;;14.71;88.16;63523.03;5105079;28;20420;-77
2022/04/28 11:03:57;;;;;;;6.03;2.45;;;;;;;14.89;87.58;63537.13;5085541;28;20216;-77
2022/04/28 11:06:29;;;;;;;5.95;3.08;;;;;;;14.58;87.92;63501.84;5085710;28;20239;-76
2022/04/28 11:08:58;;;;;;;2.40;2.20;;;;;;;14.39;90.30;63484.69;5089501;28;20277;-77
2022/04/28 11:11:28;;;;;;;3.95;3.10;;;;;;;14.71;88.15;63521.00;5099165;28;20231;-76
2022/04/28 11:13:57;;;;;;;5.63;2.97;;;;;;;14.49;88.78;63493.03;5103268;28;20219;-76
2022/04/28 11:16:25;;;;;;;3.42;2.70;;;;;;;14.69;87.62;63515.84;5106058;28;20195;-77
2022/04/28 11:18:53;;;;;;;4.57;2.97;;;;;;;14.41;88.61;63484.19;5104676;28;20216;-76
2022/04/28 11:21:22;;;;;;;3.72;2.60;;;;;;;14.43;89.86;63491.91;5105369;28;20278;-77
2022/04/28 11:23:51;;;;;;;3.58;3.28;;;;;;;14.52;88.95;63498.19;5105480;28;20529;-77
2022/04/28 11:26:19;;;;;;;5.03;3.50;;;;;;;14.26;91.42;63471.16;5105343;28;20485;-77
2022/04/28 11:28:47;;;;;;;4.28;3.05;;;;;;;14.27;89.87;63474.78;5104441;28;20397;-77
2022/04/28 11:31:16;;;;;;;3.78;3.30;;;;;;;14.19;91.71;63463.88;5105697;28;20201;-77
2022/04/28 11:33:45;;;;;;;3.58;2.90;;;;;;;14.64;87.08;63513.72;5104866;28;20227;-77
2022/04/28 11:36:17;;;;;;;5.32;2.97;;;;;;;14.77;85.39;63522.09;5102061;28;20215;-77
2022/04/28 11:38:54;;;;;;;5.65;3.13;;;;;;;14.00;92.56;63441.59;5084580;28;20235;-77
2022/04/28 11:41:33;;;;;;;3.03;2.83;;;;;;;14.52;88.20;63496.13;5085187;28;20246;-77
2022/04/28 11:44:07;;;;;;;6.22;3.13;;;;;;;14.68;86.08;63517.88;5085080;28;20212;-77
2022/04/28 11:46:36;;;;;;;3.88;3.45;;;;;;;14.50;88.75;63496.63;5073271;28;20200;-77
2022/04/28 11:49:03;;;;;;;4.93;3.65;;;;;;;14.90;85.77;63538.19;5064647;28;20372;-76
2022/04/28 11:51:33;;;;;;;3.65;3.03;;;;;;;15.06;83.01;63552.22;5064879;28;20201;-78
2022/04/28 11:54:03;;;;;;;3.45;3.30;;;;;;;14.07;89.24;63457.06;5065339;28;20217;-77
2022/04/28 11:56:33;;;;;;;7.10;3.80;;;;;;;13.92;92.53;63436.38;5068368;28;20205;-76
2022/04/28 11:59:04;;;;;;;4.35;3.95;;;;;;;14.25;90.11;63472.69;5065818;28;20533;-76
2022/04/28 12:01:33;;;;;;;7.47;3.47;;;;;;;13.82;92.99;63423.94;5082087;28;20196;-76
2022/04/28 12:04:01;;;;;;;4.90;3.90;;;;;;;14.32;89.86;63472.28;5084786;28;20216;-77
2022/04/28 12:06:28;;;;;;;8.40;3.53;;;;;;;14.58;88.21;63502.34;5077121;28;20220;-77
2022/04/28 12:08:57;;;;;;;6.22;3.85;;;;;;;14.40;86.97;63483.69;5093096;28;20462;-77